createdAt,value
2022-08-08T00:02:31.138Z,13.9
2022-08-08T00:07:39.121Z,13.9
2022-08-08T00:13:20.712Z,13.9
2022-08-08T00:18:50.105Z,13.9
2022-08-08T00:24:29.739Z,13.9
2022-08-08T00:30:00.267Z,13.9
2022-08-08T00:35:37.379Z,13.9
2022-08-08T00:41:14.347Z,14
2022-08-08T00:48:01.992Z,14
2022-08-08T00:53:29.472Z,14
2022-08-08T00:59:02.524Z,14
2022-08-08T01:04:36.396Z,14.1
2022-08-08T01:10:11.296Z,14.1
2022-08-08T01:15:47.285Z,14.2
2022-08-08T01:22:03.673Z,14.2
2022-08-08T01:26:56.357Z,14.2
2022-08-08T01:32:31.642Z,14.2
2022-08-08T01:38:06.429Z,14.2
2022-08-08T01:43:41.343Z,14.2
2022-08-08T01:49:23.451Z,14.2
2022-08-08T01:55:46.043Z,14.2
2022-08-08T02:00:27.851Z,14.2
2022-08-08T02:06:01.373Z,14.2
2022-08-08T02:11:59.051Z,14.2
2022-08-08T02:17:20.237Z,14.2
2022-08-08T02:29:31.422Z,14.2
2022-08-08T02:35:07.988Z,14.2
2022-08-08T02:40:38.761Z,14.2
2022-08-08T02:46:13.534Z,14.2
2022-08-08T02:51:56.634Z,14.2
2022-08-08T02:57:23.991Z,14.2
2022-08-08T03:02:58.070Z,14.2
2022-08-08T03:08:33.070Z,14.2
2022-08-08T03:15:57.286Z,14.2
2022-08-08T03:19:50.874Z,14.2
2022-08-08T03:25:19.153Z,14.2
2022-08-08T03:31:22.735Z,14.2
2022-08-08T03:36:30.444Z,14.2
2022-08-08T03:42:27.630Z,14.2
2022-08-08T03:47:45.716Z,14.2
2022-08-08T03:53:13.256Z,14.2
2022-08-08T03:58:48.560Z,14.2
2022-08-08T04:04:30.725Z,14.2
2022-08-08T04:10:03.237Z,14.2
2022-08-08T04:15:38.677Z,14.2
2022-08-08T04:21:08.178Z,14.2
2022-08-08T04:26:58.203Z,14.2
2022-08-08T04:32:40.916Z,14.2
2022-08-08T04:37:53.209Z,14.2
2022-08-08T04:43:31.877Z,14.2
2022-08-08T04:49:03.233Z,14.2
2022-08-08T04:54:42.475Z,14.3
2022-08-08T05:00:13.187Z,14.3
2022-08-08T05:05:48.248Z,14.4
2022-08-08T05:12:30.383Z,14.4
2022-08-08T05:18:05.402Z,14.5
2022-08-08T05:23:41.073Z,14.6
2022-08-08T05:30:28.643Z,14.6
2022-08-08T05:35:57.483Z,14.6
2022-08-08T05:41:31.984Z,14.6
2022-08-08T05:47:07.461Z,14.7
2022-08-08T05:52:42.277Z,14.7
2022-08-08T05:58:17.382Z,14.7
2022-08-08T06:03:53.668Z,14.7
2022-08-08T06:10:00.123Z,14.7
2022-08-08T06:15:03.141Z,14.8
2022-08-08T06:20:37.598Z,14.9
2022-08-08T06:26:38.169Z,14.8
2022-08-08T06:34:25.742Z,14.8
2022-08-08T06:40:48.789Z,14.8
2022-08-08T06:46:18.368Z,14.8
2022-08-08T06:51:58.166Z,14.8
2022-08-08T06:57:29.271Z,14.9
2022-08-08T07:03:04.925Z,14.9
2022-08-08T07:08:38.410Z,14.9
2022-08-08T07:14:13.413Z,14.9
2022-08-08T07:19:48.417Z,14.9
2022-08-08T07:25:23.422Z,14.9
2022-08-08T07:30:58.512Z,14.9
2022-08-08T07:36:33.482Z,15
2022-08-08T07:42:07.922Z,15.2
2022-08-08T07:47:49.174Z,15.3
2022-08-08T07:53:52.344Z,15.4
2022-08-08T07:58:52.964Z,15.6
2022-08-08T08:04:31.363Z,15.7
2022-08-08T08:10:02.965Z,15.7
2022-08-08T08:15:38.534Z,15.6
2022-08-08T08:21:16.581Z,15.5
2022-08-08T08:26:54.658Z,15.4
2022-08-08T08:32:31.476Z,15.3
2022-08-08T08:38:17.195Z,15.3
2022-08-08T08:44:40.631Z,15.2
2022-08-08T08:50:31.973Z,15.2
2022-08-08T08:55:50.134Z,15.2
2022-08-08T09:01:25.186Z,15.2
2022-08-08T09:07:00.187Z,15.2
2022-08-08T09:12:35.171Z,15.2
2022-08-08T09:18:10.159Z,15.2
2022-08-08T09:23:45.178Z,15.2
2022-08-08T09:29:22.501Z,15.2
2022-08-08T09:34:56.349Z,15.2
2022-08-08T09:40:43.928Z,15.3
2022-08-08T09:46:10.980Z,15.3
2022-08-08T09:52:01.899Z,15.4
2022-08-08T09:57:17.014Z,15.3
2022-08-08T10:02:50.759Z,15.4
2022-08-08T10:08:25.200Z,15.4
2022-08-08T10:14:02.679Z,15.4
2022-08-08T10:19:46.216Z,15.5
2022-08-08T10:25:16.592Z,15.5
2022-08-08T10:30:57.110Z,15.5
2022-08-08T10:36:22.890Z,15.5
2022-08-08T10:42:13.303Z,15.5
2022-08-08T10:48:58.615Z,15.6
2022-08-08T10:54:11.836Z,15.6
2022-08-08T10:59:46.994Z,15.7
2022-08-08T11:05:22.880Z,15.8
2022-08-08T11:10:56.932Z,15.7
2022-08-08T11:16:32.604Z,15.7
2022-08-08T11:22:06.913Z,15.6
2022-08-08T11:27:42.108Z,15.6
2022-08-08T11:33:17.249Z,15.5
2022-08-08T11:38:55.405Z,15.5
2022-08-08T11:44:28.730Z,15.4
2022-08-08T11:50:14.436Z,15.4
2022-08-08T11:55:37.102Z,15.4
2022-08-08T12:01:17.200Z,15.4
2022-08-08T12:06:48.770Z,15.4
2022-08-08T12:12:28.636Z,15.3
2022-08-08T12:17:57.140Z,15.3
2022-08-08T12:23:40.746Z,15.3
2022-08-08T12:29:10.113Z,15.4
2022-08-08T12:34:42.031Z,15.4
2022-08-08T12:40:23.783Z,15.5
2022-08-08T12:45:57.988Z,15.6
2022-08-08T12:51:27.022Z,15.6
2022-08-08T12:57:02.104Z,15.6
2022-08-08T13:02:37.184Z,15.5
2022-08-08T13:08:14.228Z,15.5
2022-08-08T13:13:47.724Z,15.5
2022-08-08T13:19:22.179Z,15.5
2022-08-08T13:24:57.115Z,15.4
2022-08-08T13:30:32.040Z,15.4
2022-08-08T13:36:07.577Z,15.4
2022-08-08T13:41:52.738Z,15.3
2022-08-08T13:47:17.133Z,15.3
2022-08-08T13:52:55.084Z,15.2
2022-08-08T13:59:34.207Z,15.2
2022-08-08T14:05:19.982Z,15.2
2022-08-08T14:10:45.415Z,15.2
2022-08-08T14:16:18.692Z,15.3
2022-08-08T14:21:54.199Z,15.3
2022-08-08T14:27:29.123Z,15.2
2022-08-08T14:33:03.752Z,15.2
2022-08-08T14:38:52.631Z,15.2
2022-08-08T14:44:21.020Z,15.2
2022-08-08T14:50:06.203Z,15.3
2022-08-08T14:55:41.562Z,15.3
2022-08-08T15:00:58.814Z,15.4
2022-08-08T15:06:33.771Z,15.3
2022-08-08T15:12:08.897Z,15.3
2022-08-08T15:17:44.022Z,15.3
2022-08-08T15:23:18.836Z,15.4
2022-08-08T15:28:54.098Z,15.4
2022-08-08T15:34:32.159Z,15.4
2022-08-08T15:40:04.147Z,15.4
2022-08-08T15:45:39.248Z,15.4
2022-08-08T15:51:15.581Z,15.5
2022-08-08T15:56:49.177Z,15.5
2022-08-08T16:02:30.557Z,15.6
2022-08-08T16:07:58.834Z,15.6
2022-08-08T16:13:45.746Z,15.6
2022-08-08T16:19:10.129Z,15.6
2022-08-08T16:24:44.508Z,15.6
2022-08-08T16:30:32.387Z,15.5
2022-08-08T16:35:53.942Z,15.5
2022-08-08T16:41:29.470Z,15.4
2022-08-08T16:47:09.846Z,15.4
2022-08-08T16:55:06.677Z,15.4
2022-08-08T16:58:17.673Z,15.3
2022-08-08T17:04:01.142Z,15.4
2022-08-08T17:10:31.025Z,15.4
2022-08-08T17:16:06.121Z,15.3
2022-08-08T17:21:41.668Z,15.2
2022-08-08T17:27:17.661Z,15.2
2022-08-08T17:34:37.412Z,15.2
2022-08-08T17:38:30.792Z,15.1
2022-08-08T17:44:02.549Z,15.1
2022-08-08T17:49:42.472Z,15.1
2022-08-08T17:56:05.299Z,15.1
2022-08-08T18:00:47.475Z,15.1
2022-08-08T18:06:30.596Z,15.1
2022-08-08T18:11:55.625Z,15.1
2022-08-08T18:18:04.974Z,15.2
2022-08-08T20:53:57.928Z,14.8
2022-08-08T20:59:25.946Z,14.8
2022-08-08T21:05:01.831Z,14.8
2022-08-08T21:10:35.838Z,14.8
2022-08-08T21:16:20.315Z,14.8
2022-08-08T21:21:51.514Z,14.8
2022-08-08T21:28:06.756Z,14.7
2022-08-08T21:32:56.011Z,14.7
2022-08-08T21:38:31.059Z,14.7
2022-08-08T21:44:05.882Z,14.7
2022-08-08T21:49:40.880Z,14.7
2022-08-08T21:55:24.206Z,14.7
2022-08-08T22:00:52.131Z,14.7
2022-08-08T22:06:28.837Z,14.7
2022-08-08T22:12:08.713Z,14.7
2022-08-08T22:17:45.093Z,14.7
2022-08-08T22:23:10.929Z,14.7
2022-08-08T22:29:05.172Z,14.7
2022-08-08T22:34:20.971Z,14.7
2022-08-08T22:41:02.536Z,14.7
2022-08-08T22:46:38.683Z,14.7
2022-08-08T22:52:12.611Z,14.7
2022-08-08T22:57:49.625Z,14.7
2022-08-08T23:03:22.635Z,14.7
2022-08-08T23:08:58.266Z,14.7
2022-08-08T23:14:32.616Z,14.7
2022-08-08T23:20:07.611Z,14.7
2022-08-08T23:25:48.035Z,14.7
2022-08-08T23:31:17.659Z,14.7
2022-08-08T23:36:52.648Z,14.7
2022-08-08T23:42:27.778Z,14.7
2022-08-08T23:49:06.332Z,14.7
2022-08-08T23:54:05.319Z,14.7
2022-08-08T23:59:16.875Z,14.7
